Terminal Aerodrome Forecast
Issued by NWS

Home | Current Version | Previous Version | Graphics & Text | Print | Product List | Glossary On
Versions: 1 2 3 4 5 6 7 8 9 10 11 12 13 14 15 16 17 18 19 20 21 22 23 24 25 26 27 28 29 30 31 32
000
FTUS43 KLOT 280900 AAA
TAFDPA
TAF AMD
KDPA 280900Z 2809/2906 04006KT P6SM BKN070
     FM281400 08007KT P6SM SCT100 BKN150
     FM281900 09010KT P6SM SCT060 OVC150
     FM290100 11007KT P6SM OVC050 PROB30 2902/2906 SHRA=

USA.gov is the U.S. government's official web portal to all federal, state and local government web resources and services.